Time;durP1;ratioP1;P1;durP2;ratioP2;P2;SDS_P1;SDS_P2;PMS_P1;PMS_P2;Temp;Humidity;BMP_temperature;BMP_pressure;BME280_temperature;BME280_humidity;BME280_pressure;Samples;Min_cycle;Max_cycle;Signal;HPM_P1;HPM_P2
2021/04/07 00:02:22;;;;;;;12.45;7.50;;;8.50;64.70;;;;;;4997300;28;20109;-51
2021/04/07 00:05:10;;;;;;;10.20;7.05;;;8.50;64.80;;;;;;4997489;28;20033;-55
2021/04/07 00:07:36;;;;;;;9.02;6.70;;;8.50;64.90;;;;;;5001077;28;20109;-52
2021/04/07 00:10:05;;;;;;;10.35;6.85;;;8.50;65.10;;;;;;4998409;28;20088;-55
2021/04/07 00:12:31;;;;;;;9.10;6.57;;;8.50;65.40;;;;;;5000458;28;20021;-51
2021/04/07 00:14:57;;;;;;;10.48;6.88;;;8.50;65.50;;;;;;5008594;28;20567;-52
2021/04/07 00:17:22;;;;;;;11.65;7.18;;;8.50;65.50;;;;;;5000149;28;20081;-54
2021/04/07 00:19:48;;;;;;;10.75;8.23;;;8.40;65.70;;;;;;4999813;28;20041;-51
2021/04/07 00:22:14;;;;;;;10.65;7.20;;;8.40;66.00;;;;;;4997498;28;20015;-51
2021/04/07 00:24:40;;;;;;;8.93;6.85;;;8.50;66.20;;;;;;5004131;28;20429;-52
2021/04/07 00:27:10;;;;;;;12.20;7.50;;;8.50;66.20;;;;;;5007439;28;20037;-50
2021/04/07 00:29:36;;;;;;;13.02;7.60;;;8.50;66.40;;;;;;5000815;28;20449;-53
2021/04/07 00:32:01;;;;;;;14.45;8.40;;;8.50;66.70;;;;;;4999270;28;20059;-54
2021/04/07 00:34:27;;;;;;;9.93;6.75;;;8.40;66.70;;;;;;4997656;28;20081;-50
2021/04/07 00:36:53;;;;;;;12.48;8.65;;;8.50;67.00;;;;;;4996651;28;20110;-51
2021/04/07 00:39:19;;;;;;;11.55;7.07;;;8.50;67.20;;;;;;4996566;28;20065;-52
2021/04/07 00:41:45;;;;;;;10.02;7.47;;;8.50;67.30;;;;;;5000966;28;20026;-52
2021/04/07 00:44:11;;;;;;;14.63;8.02;;;8.50;67.40;;;;;;4995739;28;20101;-55
2021/04/07 00:46:36;;;;;;;9.38;7.35;;;8.60;67.70;;;;;;4989936;28;20054;-54
2021/04/07 00:49:03;;;;;;;12.60;7.72;;;8.60;67.80;;;;;;5000311;28;20491;-52
2021/04/07 00:51:29;;;;;;;12.95;8.15;;;8.60;67.80;;;;;;5003960;28;20402;-51
2021/04/07 00:53:55;;;;;;;15.68;8.95;;;8.70;68.20;;;;;;5000508;28;20057;-54
2021/04/07 00:56:21;;;;;;;15.30;9.48;;;8.70;68.00;;;;;;4993876;28;20022;-51
2021/04/07 00:58:47;;;;;;;14.77;10.10;;;8.70;68.30;;;;;;4999361;28;20022;-51
2021/04/07 01:01:13;;;;;;;15.00;9.52;;;8.80;68.30;;;;;;4995452;28;20030;-51
2021/04/07 01:03:39;;;;;;;11.73;7.82;;;8.80;68.30;;;;;;5003923;28;20042;-51
2021/04/07 01:06:05;;;;;;;10.63;8.45;;;8.80;68.10;;;;;;5003279;28;20021;-51
2021/04/07 01:08:31;;;;;;;11.93;8.10;;;8.80;68.70;;;;;;4997215;28;20015;-51
2021/04/07 01:10:56;;;;;;;14.25;8.32;;;8.80;67.80;;;;;;4996470;28;20104;-51
2021/04/07 01:13:22;;;;;;;13.88;8.48;;;8.80;67.80;;;;;;4993941;28;20356;-51
2021/04/07 01:15:48;;;;;;;13.15;8.10;;;8.80;67.90;;;;;;5001807;28;20029;-50
2021/04/07 01:18:14;;;;;;;12.77;8.15;;;8.80;68.00;;;;;;5003811;28;20394;-52
2021/04/07 01:20:40;;;;;;;13.43;8.18;;;8.80;68.10;;;;;;4997173;28;20022;-51
2021/04/07 01:23:07;;;;;;;12.45;7.25;;;8.90;68.20;;;;;;4995706;28;20030;-51
2021/04/07 01:25:33;;;;;;;11.40;7.85;;;8.90;68.30;;;;;;5004868;28;20360;-51
2021/04/07 01:28:00;;;;;;;13.80;8.10;;;9.00;68.30;;;;;;5003465;28;20029;-53
2021/04/07 01:30:26;;;;;;;12.23;7.45;;;9.00;68.30;;;;;;4993452;28;20676;-54
2021/04/07 01:32:52;;;;;;;11.93;8.75;;;9.00;68.30;;;;;;4996692;28;20030;-51
2021/04/07 01:35:19;;;;;;;12.38;8.13;;;9.00;68.40;;;;;;4997713;28;20437;-51
2021/04/07 01:37:45;;;;;;;18.90;11.57;;;9.10;68.50;;;;;;5003433;28;20069;-51
2021/04/07 01:40:14;;;;;;;19.27;11.57;;;9.10;68.70;;;;;;5002191;28;20022;-52
2021/04/07 01:42:42;;;;;;;29.83;16.20;;;9.10;68.80;;;;;;4998069;28;20470;-50
2021/04/07 01:45:08;;;;;;;42.97;20.05;;;9.10;68.90;;;;;;4988216;28;20395;-51
2021/04/07 01:47:35;;;;;;;42.88;21.75;;;9.10;69.20;;;;;;4998537;28;20049;-51
2021/04/07 01:50:03;;;;;;;46.53;24.10;;;9.10;69.30;;;;;;4991858;28;20030;-52
2021/04/07 01:52:28;;;;;;;60.05;26.02;;;9.10;69.40;;;;;;4993621;28;20046;-54
2021/04/07 01:54:55;;;;;;;68.22;27.23;;;9.10;69.70;;;;;;4995770;28;20470;-53
2021/04/07 01:57:21;;;;;;;62.90;26.67;;;9.10;69.70;;;;;;4996963;28;20054;-51
2021/04/07 01:59:47;;;;;;;52.22;24.20;;;9.10;69.90;;;;;;4997979;28;20030;-54
2021/04/07 02:02:13;;;;;;;49.00;23.50;;;9.00;70.00;;;;;;4993421;28;20039;-51
2021/04/07 02:04:40;;;;;;;41.83;20.10;;;9.00;70.10;;;;;;4991539;28;20022;-51
2021/04/07 02:07:13;;;;;;;41.35;18.60;;;9.00;70.00;;;;;;4989425;28;20026;-51
2021/04/07 02:09:39;;;;;;;33.05;17.00;;;9.00;70.10;;;;;;4996282;28;20029;-50
2021/04/07 02:12:05;;;;;;;31.83;15.82;;;9.00;70.40;;;;;;5004825;28;20494;-51
2021/04/07 02:14:32;;;;;;;27.58;14.63;;;9.00;70.30;;;;;;5002937;28;20385;-53
2021/04/07 02:17:03;;;;;;;26.60;14.02;;;9.00;70.30;;;;;;4995164;28;20038;-51
2021/04/07 02:19:31;;;;;;;23.17;13.68;;;9.00;70.10;;;;;;4992889;28;20071;-51
2021/04/07 02:22:15;;;;;;;26.95;14.05;;;9.00;70.30;;;;;;4991951;28;20034;-52
2021/04/07 02:24:47;;;;;;;25.50;14.60;;;9.00;70.20;;;;;;5002101;28;20150;-52
2021/04/07 02:27:21;;;;;;;31.08;15.13;;;8.90;70.30;;;;;;5002673;28;20355;-52
2021/04/07 02:29:49;;;;;;;25.83;14.00;;;8.90;70.50;;;;;;5001147;28;20504;-51
2021/04/07 02:32:15;;;;;;;27.40;14.80;;;8.90;70.70;;;;;;4994798;28;20030;-51
2021/04/07 02:34:42;;;;;;;27.05;14.07;;;8.90;70.50;;;;;;5003527;28;20025;-53
2021/04/07 02:37:15;;;;;;;19.20;11.95;;;9.00;70.70;;;;;;4992905;28;20022;-50
2021/04/07 02:39:42;;;;;;;19.25;11.20;;;9.00;70.80;;;;;;5003289;28;20034;-51
2021/04/07 02:42:09;;;;;;;21.40;11.00;;;9.00;70.90;;;;;;5000678;28;20026;-50
2021/04/07 02:44:36;;;;;;;17.67;10.13;;;9.00;70.80;;;;;;4994041;28;20062;-52
2021/04/07 02:47:02;;;;;;;15.55;9.60;;;9.10;71.00;;;;;;4994327;28;20045;-52
2021/04/07 02:49:28;;;;;;;14.23;9.75;;;9.10;71.10;;;;;;4999415;28;20466;-51
2021/04/07 02:51:55;;;;;;;13.38;9.15;;;9.20;71.00;;;;;;5002303;28;20054;-52
2021/04/07 02:54:24;;;;;;;12.40;9.27;;;9.20;71.00;;;;;;4998783;28;20114;-50
2021/04/07 02:56:50;;;;;;;11.85;8.98;;;9.20;70.80;;;;;;5000353;28;20418;-54
2021/04/07 02:59:16;;;;;;;13.38;8.82;;;9.30;70.80;;;;;;5002303;28;20081;-54
2021/04/07 03:01:42;;;;;;;14.40;8.85;;;9.30;70.80;;;;;;5007993;28;20072;-52
2021/04/07 03:04:08;;;;;;;13.43;9.23;;;9.30;70.60;;;;;;5000299;28;20030;-53
2021/04/07 03:06:34;;;;;;;11.35;8.43;;;9.30;70.70;;;;;;5000647;28;20069;-51
2021/04/07 03:09:00;;;;;;;12.88;9.13;;;9.20;70.70;;;;;;4999641;28;20097;-52
2021/04/07 03:11:27;;;;;;;13.52;9.35;;;9.20;70.60;;;;;;4987556;28;20399;-52
2021/04/07 03:13:53;;;;;;;15.15;9.90;;;9.20;70.70;;;;;;5005350;28;20026;-51
2021/04/07 03:16:18;;;;;;;11.80;8.60;;;9.20;70.60;;;;;;5002818;28;20121;-50
2021/04/07 03:18:44;;;;;;;12.43;9.32;;;9.20;70.50;;;;;;4999156;28;20386;-51
2021/04/07 03:21:10;;;;;;;14.02;8.93;;;9.20;70.60;;;;;;5000491;28;20360;-51
2021/04/07 03:23:36;;;;;;;13.57;9.30;;;9.20;70.80;;;;;;4996916;28;20019;-51
2021/04/07 03:26:02;;;;;;;12.45;9.00;;;9.20;70.70;;;;;;5008177;28;20080;-53
2021/04/07 03:28:29;;;;;;;12.60;9.32;;;9.10;70.40;;;;;;5002470;28;20348;-54
2021/04/07 03:30:55;;;;;;;14.73;9.48;;;9.20;70.80;;;;;;4999273;28;20439;-54
2021/04/07 03:33:30;;;;;;;16.05;9.40;;;9.10;70.90;;;;;;4998528;28;20046;-51
2021/04/07 03:35:57;;;;;;;11.02;8.52;;;9.10;71.00;;;;;;5006837;28;20037;-53
2021/04/07 03:38:23;;;;;;;13.68;9.70;;;9.10;71.00;;;;;;5004788;28;20478;-52
2021/04/07 03:40:49;;;;;;;13.60;9.98;;;9.10;71.20;;;;;;4998849;28;20034;-50
2021/04/07 03:43:20;;;;;;;22.55;13.23;;;9.10;71.00;;;;;;4999120;28;20026;-51
2021/04/07 03:45:49;;;;;;;21.60;13.48;;;9.10;70.90;;;;;;4992269;28;20040;-52
2021/04/07 03:48:17;;;;;;;24.48;15.05;;;9.10;71.10;;;;;;4987919;28;20058;-50
2021/04/07 03:50:45;;;;;;;22.42;14.30;;;9.10;71.30;;;;;;5003773;28;20045;-52
2021/04/07 03:53:11;;;;;;;27.25;16.95;;;9.00;71.20;;;;;;4998830;28;20077;-50
2021/04/07 03:55:38;;;;;;;23.00;15.00;;;9.10;71.20;;;;;;5001034;28;20033;-51
2021/04/07 03:58:04;;;;;;;23.67;15.75;;;9.10;71.30;;;;;;4999077;28;20026;-50
2021/04/07 04:00:30;;;;;;;24.08;15.43;;;9.10;71.40;;;;;;5007039;28;20510;-53
2021/04/07 04:02:56;;;;;;;21.20;14.32;;;9.10;71.10;;;;;;4997634;28;20110;-52
2021/04/07 04:05:22;;;;;;;20.80;14.00;;;9.10;71.30;;;;;;4999235;28;20093;-52
2021/04/07 04:07:48;;;;;;;20.80;13.45;;;9.10;71.20;;;;;;5002175;28;20030;-50
2021/04/07 04:10:14;;;;;;;19.60;14.00;;;9.20;71.60;;;;;;4995324;28;20022;-51
2021/04/07 04:12:40;;;;;;;18.38;12.40;;;9.20;71.60;;;;;;5001327;28;20033;-55
2021/04/07 04:15:09;;;;;;;19.95;12.88;;;9.30;71.60;;;;;;4998016;28;20117;-52
2021/04/07 04:17:36;;;;;;;18.27;12.63;;;9.40;71.40;;;;;;5000667;28;20027;-52
2021/04/07 04:20:03;;;;;;;13.60;9.82;;;9.40;71.40;;;;;;4997098;28;20454;-51
2021/04/07 04:22:29;;;;;;;14.57;9.98;;;9.50;71.40;;;;;;4992805;28;20028;-50
2021/04/07 04:24:54;;;;;;;13.25;8.45;;;9.60;71.30;;;;;;5008993;28;20503;-51
2021/04/07 04:27:20;;;;;;;14.65;10.13;;;9.50;70.90;;;;;;5003578;28;20105;-50
2021/04/07 04:29:46;;;;;;;15.65;9.68;;;9.50;70.80;;;;;;5001077;28;20514;-50
2021/04/07 04:32:12;;;;;;;15.82;10.23;;;9.50;70.80;;;;;;4997430;28;20041;-49
2021/04/07 04:34:38;;;;;;;11.77;9.15;;;9.40;70.80;;;;;;5003024;28;20100;-50
2021/04/07 04:37:04;;;;;;;12.77;9.40;;;9.40;70.80;;;;;;4993413;28;20156;-51
2021/04/07 04:39:29;;;;;;;14.43;9.43;;;9.40;70.90;;;;;;4999780;28;20038;-50
2021/04/07 04:41:55;;;;;;;14.90;9.38;;;9.40;70.90;;;;;;5000728;28;20018;-52
2021/04/07 04:44:21;;;;;;;14.88;9.43;;;9.40;70.90;;;;;;5001767;28;20037;-50
2021/04/07 04:46:47;;;;;;;17.40;10.65;;;9.40;71.10;;;;;;5004219;28;20030;-53
2021/04/07 04:49:13;;;;;;;17.48;9.80;;;9.40;71.20;;;;;;4996338;28;20027;-50
2021/04/07 04:51:39;;;;;;;15.75;9.93;;;9.50;71.60;;;;;;5000736;28;20117;-51
2021/04/07 04:54:05;;;;;;;14.93;9.85;;;9.50;71.50;;;;;;4996758;28;20030;-51
2021/04/07 04:56:31;;;;;;;17.05;10.75;;;9.60;71.50;;;;;;4996684;28;20469;-51
2021/04/07 04:58:56;;;;;;;17.60;11.15;;;9.70;71.50;;;;;;4995251;28;20030;-50
2021/04/07 05:01:22;;;;;;;16.90;12.20;;;9.80;71.40;;;;;;4997791;28;20090;-49
2021/04/07 05:03:48;;;;;;;22.98;12.15;;;9.80;71.30;;;;;;5000351;28;20045;-52
2021/04/07 05:06:14;;;;;;;14.68;11.38;;;10.00;71.40;;;;;;4994671;28;20023;-53
2021/04/07 05:08:39;;;;;;;15.57;10.07;;;10.20;71.40;;;;;;4991116;28;20022;-50
2021/04/07 05:11:05;;;;;;;12.48;8.20;;;10.50;71.60;;;;;;4988967;28;20045;-53
2021/04/07 05:13:31;;;;;;;11.63;8.55;;;10.90;71.30;;;;;;4988253;28;20018;-51
2021/04/07 05:15:57;;;;;;;11.18;8.02;;;11.40;70.50;;;;;;4991820;28;20481;-50
2021/04/07 05:18:24;;;;;;;15.73;9.43;;;11.90;69.30;;;;;;4996950;28;20128;-51
2021/04/07 05:20:50;;;;;;;11.60;8.38;;;12.40;68.70;;;;;;4991305;28;20030;-54
2021/04/07 05:23:16;;;;;;;11.82;8.75;;;12.90;67.60;;;;;;4990083;28;20025;-54
2021/04/07 05:25:41;;;;;;;12.35;8.50;;;13.20;65.60;;;;;;4991583;28;20434;-54
2021/04/07 05:28:08;;;;;;;12.57;8.45;;;13.20;64.20;;;;;;4987340;28;20101;-54
2021/04/07 05:33:20;;;;;;;15.25;10.32;;;12.70;63.10;;;;;;4983911;28;20045;-54
2021/04/07 05:35:46;;;;;;;27.90;15.15;;;12.20;63.40;;;;;;4981980;28;20038;-52
2021/04/07 05:38:11;;;;;;;20.92;15.05;;;11.90;63.90;;;;;;4981949;28;20034;-54
2021/04/07 05:40:37;;;;;;;21.92;14.40;;;11.50;64.50;;;;;;4979991;28;20406;-55
2021/04/07 05:43:04;;;;;;;22.58;15.68;;;11.20;65.10;;;;;;4981940;28;20031;-55
2021/04/07 05:45:30;;;;;;;24.83;16.10;;;10.90;65.60;;;;;;4986695;28;20399;-55
2021/04/07 05:47:56;;;;;;;27.88;17.17;;;10.70;66.00;;;;;;4981559;28;20108;-55
2021/04/07 05:50:22;;;;;;;27.10;17.00;;;10.60;66.50;;;;;;4983224;28;20066;-54
2021/04/07 05:52:51;;;;;;;25.98;19.10;;;10.50;67.10;;;;;;4982574;28;20034;-54
2021/04/07 05:55:22;;;;;;;30.90;19.02;;;10.40;67.50;;;;;;4981944;28;20228;-53
2021/04/07 05:58:07;;;;;;;30.42;19.27;;;10.30;67.50;;;;;;4983625;28;20035;-50
2021/04/07 06:00:34;;;;;;;29.60;18.40;;;10.20;67.50;;;;;;4980705;28;20037;-52
2021/04/07 06:03:02;;;;;;;26.70;18.95;;;10.20;68.00;;;;;;4984707;28;20431;-51
2021/04/07 06:05:28;;;;;;;25.38;18.38;;;10.10;68.10;;;;;;4982258;28;20038;-51
2021/04/07 06:07:54;;;;;;;31.80;18.30;;;10.20;68.30;;;;;;4977267;28;20034;-51
2021/04/07 06:10:20;;;;;;;24.55;17.75;;;10.10;68.40;;;;;;4983422;28;20762;-53
2021/04/07 06:12:46;;;;;;;22.13;17.83;;;10.20;68.60;;;;;;4982551;28;20039;-54
2021/04/07 06:15:13;;;;;;;19.90;15.80;;;10.20;68.60;;;;;;4980160;28;20045;-51
2021/04/07 06:17:40;;;;;;;20.85;13.60;;;10.20;68.60;;;;;;4978162;28;20112;-51
2021/04/07 06:20:11;;;;;;;19.48;12.23;;;10.20;68.70;;;;;;4973840;28;20046;-54
2021/04/07 06:22:37;;;;;;;16.30;11.88;;;10.30;68.50;;;;;;4975107;28;20113;-53
2021/04/07 06:25:06;;;;;;;15.63;11.10;;;10.30;68.40;;;;;;4981210;28;20038;-50
2021/04/07 06:27:33;;;;;;;12.93;9.70;;;10.40;68.60;;;;;;4976899;28;20412;-53
2021/04/07 06:30:01;;;;;;;13.48;8.68;;;10.40;68.80;;;;;;4984248;28;20121;-54
2021/04/07 06:32:28;;;;;;;11.02;7.55;;;10.50;68.60;;;;;;4982173;28;20035;-51
2021/04/07 06:34:54;;;;;;;11.88;7.47;;;10.60;68.80;;;;;;4979471;28;20403;-50
2021/04/07 06:37:20;;;;;;;12.10;8.02;;;10.70;68.60;;;;;;4980372;28;20085;-52
2021/04/07 06:39:46;;;;;;;10.25;7.55;;;10.70;68.50;;;;;;4981361;28;20039;-51
2021/04/07 06:42:13;;;;;;;11.27;8.32;;;10.90;68.40;;;;;;4980254;28;20026;-53
2021/04/07 06:44:39;;;;;;;10.98;7.78;;;11.00;68.30;;;;;;4982825;28;20292;-52
2021/04/07 06:47:05;;;;;;;10.10;7.55;;;11.10;68.00;;;;;;4982897;28;20050;-53
2021/04/07 06:49:33;;;;;;;9.90;7.82;;;11.20;68.30;;;;;;4978370;28;20093;-50
2021/04/07 06:52:02;;;;;;;10.27;7.43;;;11.30;67.50;;;;;;4976168;28;20089;-50
2021/04/07 06:54:29;;;;;;;8.85;6.57;;;11.50;67.40;;;;;;4979106;28;20037;-54
2021/04/07 06:56:55;;;;;;;10.20;7.35;;;11.60;67.20;;;;;;4975234;28;20037;-53
2021/04/07 06:59:21;;;;;;;11.00;8.02;;;11.70;66.60;;;;;;4982805;28;20057;-53
2021/04/07 07:01:47;;;;;;;10.52;7.82;;;11.80;66.50;;;;;;4975672;28;20042;-56
2021/04/07 07:04:13;;;;;;;11.88;8.30;;;11.80;66.90;;;;;;4984375;28;20030;-52
2021/04/07 07:06:38;;;;;;;13.10;8.60;;;11.90;66.50;;;;;;4978369;28;20715;-52
2021/04/07 07:09:18;;;;;;;12.60;8.48;;;12.00;66.20;;;;;;4977739;28;20034;-53
2021/04/07 07:11:48;;;;;;;10.50;8.10;;;12.20;65.80;;;;;;4981427;28;20037;-53
2021/04/07 07:14:15;;;;;;;10.50;8.20;;;12.30;65.80;;;;;;4981825;28;20894;-54
2021/04/07 07:16:50;;;;;;;12.88;8.68;;;12.50;65.50;;;;;;4977446;28;20355;-52
2021/04/07 07:19:25;;;;;;;11.95;8.85;;;12.70;65.00;;;;;;4979065;28;20038;-52
2021/04/07 07:22:00;;;;;;;11.65;9.10;;;12.80;65.20;;;;;;4979097;28;20356;-54
2021/04/07 07:24:33;;;;;;;12.27;9.02;;;12.90;63.90;;;;;;4982905;28;20030;-52
2021/04/07 07:27:00;;;;;;;13.65;9.00;;;12.90;63.40;;;;;;4979967;28;20425;-54
2021/04/07 07:29:28;;;;;;;12.65;8.18;;;12.90;63.20;;;;;;4980894;28;20442;-56
2021/04/07 07:32:02;;;;;;;14.85;9.60;;;12.90;63.10;;;;;;4972997;28;20026;-53
2021/04/07 07:34:28;;;;;;;12.93;8.85;;;12.90;62.90;;;;;;4979388;28;20022;-57
2021/04/07 07:36:56;;;;;;;14.18;9.05;;;12.90;63.00;;;;;;4982341;28;20030;-56
2021/04/07 07:39:33;;;;;;;13.07;9.05;;;12.90;63.00;;;;;;4981503;28;20050;-56
2021/04/07 07:42:06;;;;;;;12.60;8.70;;;12.90;63.30;;;;;;4986859;28;20018;-54
2021/04/07 07:44:35;;;;;;;11.98;9.02;;;13.00;63.50;;;;;;4984043;28;20036;-51
2021/04/07 07:48:09;;;;;;;12.52;9.45;;;13.10;63.10;;;;;;4982643;28;20081;-54
2021/04/07 07:50:07;;;;;;;11.38;8.05;;;13.20;62.80;;;;;;4981196;28;20054;-53
2021/04/07 07:52:34;;;;;;;8.85;7.65;;;13.30;62.30;;;;;;4976881;28;20047;-55
2021/04/07 07:55:12;;;;;;;11.20;8.23;;;13.20;62.10;;;;;;4980952;28;20039;-55
2021/04/07 07:57:38;;;;;;;10.23;7.85;;;13.10;62.00;;;;;;4978625;28;20466;-54
2021/04/07 08:00:08;;;;;;;10.18;8.38;;;13.10;62.10;;;;;;4972790;28;20053;-54
2021/04/07 08:02:37;;;;;;;9.20;7.25;;;13.10;62.10;;;;;;4977172;28;20542;-54
2021/04/07 08:05:14;;;;;;;10.48;9.05;;;13.10;62.10;;;;;;4975228;28;20026;-51
2021/04/07 08:07:40;;;;;;;11.73;9.05;;;13.00;61.90;;;;;;4982199;28;20403;-52
2021/04/07 08:10:06;;;;;;;13.38;9.55;;;12.80;62.00;;;;;;4979125;28;20031;-53
2021/04/07 08:12:33;;;;;;;14.43;9.57;;;12.70;62.40;;;;;;4983316;28;20037;-54
2021/04/07 08:15:00;;;;;;;13.95;9.10;;;12.60;62.60;;;;;;4977223;28;20121;-52
2021/04/07 08:17:29;;;;;;;10.75;9.38;;;12.60;63.20;;;;;;4979475;28;20034;-54
2021/04/07 08:19:57;;;;;;;14.13;10.88;;;12.50;63.90;;;;;;4979360;28;20040;-54
2021/04/07 08:22:25;;;;;;;16.38;12.05;;;12.60;63.20;;;;;;4977201;28;20033;-55
2021/04/07 08:24:53;;;;;;;15.02;10.00;;;12.60;62.90;;;;;;4975819;28;20041;-51
2021/04/07 08:27:21;;;;;;;15.15;11.43;;;12.60;62.90;;;;;;4984730;28;20121;-53
2021/04/07 08:29:47;;;;;;;17.70;11.45;;;12.70;62.80;;;;;;4982671;28;20545;-53
2021/04/07 08:32:22;;;;;;;17.60;11.60;;;12.70;62.90;;;;;;4976771;28;20092;-54
2021/04/07 08:34:49;;;;;;;17.08;11.27;;;12.70;63.00;;;;;;4977247;28;20047;-54
2021/04/07 08:37:28;;;;;;;14.85;10.45;;;12.70;63.10;;;;;;4977080;28;20034;-53
2021/04/07 08:39:55;;;;;;;15.05;10.73;;;12.70;62.80;;;;;;4983329;28;20126;-53
2021/04/07 08:42:22;;;;;;;16.48;11.50;;;12.70;63.10;;;;;;4979880;28;20045;-54
2021/04/07 08:44:49;;;;;;;15.98;10.82;;;12.60;63.00;;;;;;4980750;28;20058;-53
2021/04/07 08:47:30;;;;;;;15.30;11.50;;;12.60;63.20;;;;;;4977630;28;20042;-54
2021/04/07 08:50:07;;;;;;;18.97;12.83;;;12.50;62.90;;;;;;4969717;28;20042;-53
2021/04/07 08:52:45;;;;;;;15.68;10.93;;;12.50;63.10;;;;;;4971339;28;20055;-53
2021/04/07 08:55:23;;;;;;;14.48;11.02;;;12.50;63.10;;;;;;4979149;28;20042;-55
2021/04/07 08:58:24;;;;;;;15.55;11.27;;;12.40;63.00;;;;;;4977325;28;20080;-51
2021/04/07 09:00:54;;;;;;;;;;;12.40;63.00;;;;;;4976631;28;20142;-50
2021/04/07 09:03:25;;;;;;;13.15;9.45;;;12.40;63.20;;;;;;4982204;28;19913;-50
2021/04/07 09:05:52;;;;;;;12.65;9.02;;;12.50;63.50;;;;;;4979043;28;20090;-52
2021/04/07 09:08:23;;;;;;;9.05;7.70;;;12.50;63.30;;;;;;4979345;28;20030;-52
2021/04/07 09:10:55;;;;;;;10.68;8.13;;;12.50;63.20;;;;;;4974709;28;20052;-53
2021/04/07 09:13:25;;;;;;;;;;;12.60;63.20;;;;;;4975919;28;20042;-50
2021/04/07 09:16:02;;;;;;;10.60;7.65;;;12.50;63.20;;;;;;4974379;28;20584;-52
2021/04/07 09:18:40;;;;;;;9.45;7.18;;;12.60;63.20;;;;;;4977365;28;20094;-52
2021/04/07 09:21:09;;;;;;;9.77;7.32;;;12.60;63.40;;;;;;4969512;28;20030;-54
2021/04/07 09:23:37;;;;;;;9.32;7.50;;;12.60;63.50;;;;;;4972944;28;20028;-53
2021/04/07 09:26:14;;;;;;;10.00;7.13;;;12.60;63.40;;;;;;4973926;28;20597;-51
2021/04/07 09:28:46;;;;;;;9.55;7.13;;;12.60;63.40;;;;;;4970514;28;20026;-52
2021/04/07 09:31:13;;;;;;;10.35;7.07;;;12.60;63.70;;;;;;4972373;28;20479;-54
2021/04/07 09:33:44;;;;;;;8.23;6.50;;;12.60;63.90;;;;;;4971927;28;20511;-55
2021/04/07 09:36:11;;;;;;;10.35;6.38;;;12.50;63.90;;;;;;4975863;28;20030;-51
2021/04/07 09:38:43;;;;;;;9.13;6.43;;;12.50;64.10;;;;;;4971238;28;20034;-54
2021/04/07 09:41:16;;;;;;;8.77;6.28;;;12.50;64.10;;;;;;4977736;28;20022;-53
2021/04/07 09:43:43;;;;;;;7.47;6.13;;;12.50;64.40;;;;;;4981890;28;20037;-53
2021/04/07 09:46:09;;;;;;;9.05;6.28;;;12.50;64.60;;;;;;4980214;28;20034;-53
2021/04/07 09:49:05;;;;;;;8.93;6.43;;;12.60;64.60;;;;;;4981821;28;20027;-54
2021/04/07 09:51:32;;;;;;;8.80;6.57;;;12.60;64.80;;;;;;4979997;28;20045;-50
2021/04/07 09:54:10;;;;;;;8.60;6.80;;;12.60;64.60;;;;;;4978709;28;20041;-51
2021/04/07 09:57:06;;;;;;;8.82;6.60;;;12.60;64.40;;;;;;4976534;28;21124;-52
2021/04/07 09:59:45;;;;;;;9.13;6.60;;;12.60;64.60;;;;;;4969446;28;20034;-55
2021/04/07 10:02:33;;;;;;;8.13;6.88;;;12.50;64.70;;;;;;4980070;28;20022;-56
2021/04/07 10:04:58;;;;;;;10.35;6.95;;;12.50;64.80;;;;;;4974259;28;20038;-53
2021/04/07 10:07:30;;;;;;;10.05;7.03;;;12.50;64.90;;;;;;4974741;28;20026;-55
2021/04/07 10:09:57;;;;;;;9.30;6.90;;;12.50;65.20;;;;;;4976843;28;20031;-55
2021/04/07 10:12:25;;;;;;;8.93;7.38;;;12.50;65.30;;;;;;4980078;28;20054;-56
2021/04/07 10:14:53;;;;;;;12.23;7.50;;;12.60;65.30;;;;;;4977740;28;20042;-55
2021/04/07 10:17:21;;;;;;;10.80;7.00;;;12.60;65.30;;;;;;4981307;28;20038;-53
2021/04/07 10:19:47;;;;;;;9.90;7.40;;;12.60;65.30;;;;;;4981146;28;20080;-54
2021/04/07 10:22:20;;;;;;;9.13;6.68;;;12.60;65.40;;;;;;4986338;28;20035;-56
2021/04/07 10:24:47;;;;;;;10.70;6.90;;;12.70;65.30;;;;;;4983913;28;20532;-55
2021/04/07 10:27:21;;;;;;;8.75;7.25;;;12.70;65.00;;;;;;4976753;28;20037;-56
2021/04/07 10:29:48;;;;;;;8.43;6.80;;;12.70;65.00;;;;;;4973765;28;20038;-54
2021/04/07 10:32:19;;;;;;;10.77;7.00;;;12.80;65.00;;;;;;4979224;28;20030;-56
2021/04/07 10:34:46;;;;;;;11.43;7.60;;;12.80;64.80;;;;;;4977724;28;20034;-55
2021/04/07 10:37:18;;;;;;;10.20;7.18;;;12.80;64.50;;;;;;4978143;28;20070;-55
2021/04/07 10:39:45;;;;;;;9.85;6.60;;;12.80;64.60;;;;;;4975693;28;20049;-54
2021/04/07 10:42:19;;;;;;;10.65;8.18;;;12.80;64.40;;;;;;4975195;28;20069;-55
2021/04/07 10:45:06;;;;;;;9.00;6.85;;;12.80;64.20;;;;;;4977786;28;20593;-56
2021/04/07 10:47:35;;;;;;;10.23;7.18;;;12.80;64.10;;;;;;4978952;28;20058;-59
2021/04/07 10:50:02;;;;;;;11.00;6.95;;;12.70;64.00;;;;;;4976688;28;20054;-55
2021/04/07 10:52:45;;;;;;;12.25;7.13;;;12.60;64.10;;;;;;4980739;28;20050;-55
2021/04/07 10:55:19;;;;;;;12.55;9.70;;;12.50;64.40;;;;;;4970517;28;20701;-60
2021/04/07 10:57:47;;;;;;;13.10;9.65;;;12.30;64.80;;;;;;4970140;28;20041;-55
2021/04/07 11:00:37;;;;;;;16.80;11.13;;;12.20;65.20;;;;;;4966670;28;20041;-52
2021/04/07 11:03:05;;;;;;;13.98;10.40;;;12.10;65.70;;;;;;4974190;28;20053;-55
2021/04/07 11:05:42;;;;;;;15.65;11.07;;;12.00;65.80;;;;;;4974966;28;20040;-54
2021/04/07 11:08:10;;;;;;;11.18;8.25;;;11.80;65.50;;;;;;4980834;28;20061;-54
2021/04/07 11:10:42;;;;;;;10.35;6.75;;;11.50;65.70;;;;;;4980049;28;20577;-55
2021/04/07 11:13:09;;;;;;;10.52;7.30;;;11.30;65.70;;;;;;4978329;28;20147;-54
2021/04/07 11:15:35;;;;;;;8.75;6.55;;;11.10;66.00;;;;;;4983153;28;20049;-53
2021/04/07 11:18:01;;;;;;;9.52;6.80;;;10.90;66.50;;;;;;4979138;28;20501;-56
2021/04/07 11:20:28;;;;;;;10.38;7.15;;;10.70;66.80;;;;;;4975668;28;20035;-54
2021/04/07 11:22:54;;;;;;;9.60;6.20;;;10.60;67.80;;;;;;4977412;28;20036;-52
2021/04/07 11:25:21;;;;;;;6.65;5.05;;;10.50;67.40;;;;;;4978765;28;20150;-51
2021/04/07 11:27:47;;;;;;;6.30;4.80;;;10.30;67.50;;;;;;4969624;28;20604;-55
2021/04/07 11:30:14;;;;;;;8.05;5.10;;;10.20;67.60;;;;;;4972688;28;20061;-55
2021/04/07 11:32:47;;;;;;;7.10;4.68;;;10.20;67.80;;;;;;4973869;28;20133;-54
2021/04/07 11:38:00;;;;;;;6.03;4.25;;;10.20;68.20;;;;;;4979119;28;20048;-53
2021/04/07 11:40:42;;;;;;;5.95;4.25;;;10.20;68.10;;;;;;4973248;28;20201;-54
2021/04/07 11:43:15;;;;;;;6.10;4.07;;;10.10;68.20;;;;;;4979859;28;20045;-52
2021/04/07 11:45:41;;;;;;;5.63;4.32;;;10.10;68.00;;;;;;4981082;28;20039;-54
2021/04/07 11:48:11;;;;;;;5.47;3.95;;;10.00;68.20;;;;;;4979488;28;20217;-50
2021/04/07 11:50:37;;;;;;;5.22;3.60;;;10.00;68.20;;;;;;4982872;28;20069;-52
2021/04/07 11:53:03;;;;;;;4.53;3.63;;;10.00;68.10;;;;;;4980837;28;20030;-52
2021/04/07 11:55:28;;;;;;;5.22;3.95;;;10.00;68.10;;;;;;4982000;28;20080;-51
2021/04/07 11:57:54;;;;;;;6.68;4.13;;;9.90;68.20;;;;;;4976787;28;20026;-53
2021/04/07 12:00:20;;;;;;;6.32;4.63;;;9.90;68.40;;;;;;4976906;28;20030;-53
2021/04/07 12:02:46;;;;;;;5.95;4.63;;;9.90;68.30;;;;;;4962497;28;20045;-51
2021/04/07 12:05:14;;;;;;;7.38;4.22;;;9.90;68.40;;;;;;4981832;28;20038;-49
2021/04/07 12:07:40;;;;;;;9.00;5.10;;;9.90;68.50;;;;;;4979373;28;21054;-50
2021/04/07 12:10:07;;;;;;;8.45;6.00;;;9.80;68.60;;;;;;4976164;28;20042;-54
2021/04/07 12:12:32;;;;;;;7.50;5.60;;;9.80;68.70;;;;;;4980434;28;20039;-54
2021/04/07 12:14:58;;;;;;;9.32;6.07;;;9.80;68.90;;;;;;4979259;28;20044;-54
2021/04/07 12:17:24;;;;;;;8.45;5.72;;;9.80;68.90;;;;;;4979528;28;20041;-50
2021/04/07 12:19:50;;;;;;;7.80;5.22;;;9.70;69.00;;;;;;4986338;28;20049;-51
2021/04/07 12:22:16;;;;;;;7.40;5.28;;;9.70;69.00;;;;;;4977580;28;20037;-55
2021/04/07 12:24:42;;;;;;;5.90;4.78;;;9.60;69.10;;;;;;4975006;28;20046;-52
2021/04/07 12:27:08;;;;;;;5.80;4.25;;;9.60;69.20;;;;;;4978553;28;20042;-53
2021/04/07 12:29:34;;;;;;;7.93;4.75;;;9.50;69.30;;;;;;4974741;28;20031;-54
2021/04/07 12:31:59;;;;;;;5.47;4.18;;;9.40;69.50;;;;;;4975437;28;20058;-53
2021/04/07 12:34:26;;;;;;;5.13;4.18;;;9.30;69.50;;;;;;4979613;28;20029;-55
2021/04/07 12:36:51;;;;;;;5.32;4.15;;;9.30;69.80;;;;;;4975540;28;20098;-54
2021/04/07 12:39:17;;;;;;;5.60;4.05;;;9.20;70.00;;;;;;4966001;28;20031;-55
2021/04/07 12:41:51;;;;;;;6.68;5.75;;;9.10;70.30;;;;;;4974241;28;20083;-53
2021/04/07 12:44:17;;;;;;;7.78;5.32;;;9.00;70.50;;;;;;4973190;28;20475;-53
2021/04/07 12:46:43;;;;;;;6.18;4.13;;;8.90;70.80;;;;;;4979963;28;20033;-54
2021/04/07 12:49:09;;;;;;;5.25;3.63;;;8.80;71.10;;;;;;4979222;28;20027;-50
2021/04/07 12:51:35;;;;;;;4.55;3.35;;;8.70;71.50;;;;;;4977571;28;20101;-54
2021/04/07 12:54:01;;;;;;;3.83;3.00;;;8.50;71.80;;;;;;4978148;28;20061;-53